Pullman-Moscow Regional Airport Pullman-Moscow US
ICAO: KPUW
IATA: PUW
Category: Medium
Scheduled Services: Yes

Elevation: 2556 ft
TransAlt. 18000 ft.

Airport Communications:
ASOS:135.675
SEATTLE CNTR:123.95
SEATTLE RDO:122.6
CTAF/UNICOM:122.8

KPUW Zoom In..

If you have problems with the map follow the link
https://www.worldairports.se/pages/airport.php?
ICAO=KPUW

Runways:

(A) RW 06 length 6730 ft width 100 ft
---- / hdg 55

(B) RW 24 length 6730 ft width 100 ft
---- / hdg 235

Location; KPUW
Day. 26 / Time. 23.53 Zulu
* Altimeter: 30.02
* Temperature: 05° c. 41°f.
* Wind from: 260° Speed 04 kn.
Dewpoint: 03° c.
Visibility: 9 Statute Miles.
Clouds: Broken 600 ft.
Clouds: Overcast 2300 ft.

KPUW 262353Z AUTO 26004KT 9SM BKN006 OVC023 05/03 A3002 RMK AO2 SLP181 60002 T00500033 10056 20033 53008


Wind From 260°
Speed 04 kn.

 
 
jpsmedia worldairports.se 2020   terms of use